sensor_id;sensor_type;location;lat;lon;timestamp;pressure;altitude;pressure_sealevel;temperature;humidity
7836;BME280;3963;42.658;23.298;2023-03-31T00:00:52;59083.41;;;8.11;80.97
7836;BME280;3963;42.658;23.298;2023-03-31T00:03:24;59081.47;;;8.00;80.04
7836;BME280;3963;42.658;23.298;2023-03-31T00:05:54;59079.59;;;8.05;81.04
7836;BME280;3963;42.658;23.298;2023-03-31T00:08:22;59078.44;;;8.02;80.04
7836;BME280;3963;42.658;23.298;2023-03-31T00:10:50;59027.91;;;7.86;80.61
7836;BME280;3963;42.658;23.298;2023-03-31T00:13:17;59071.78;;;8.03;79.77
7836;BME280;3963;42.658;23.298;2023-03-31T00:15:44;59067.59;;;8.01;80.79
7836;BME280;3963;42.658;23.298;2023-03-31T00:18:11;59111.16;;;8.08;79.96
7836;BME280;3963;42.658;23.298;2023-03-31T00:20:39;59085.53;;;8.13;80.06
7836;BME280;3963;42.658;23.298;2023-03-31T00:23:07;59096.63;;;8.21;80.12
7836;BME280;3963;42.658;23.298;2023-03-31T00:25:38;59147.13;;;8.35;78.27
7836;BME280;3963;42.658;23.298;2023-03-31T00:28:05;59089.50;;;8.24;81.65
7836;BME280;3963;42.658;23.298;2023-03-31T00:30:32;59054.75;;;8.18;81.38
7836;BME280;3963;42.658;23.298;2023-03-31T00:32:59;59074.47;;;8.22;81.61
7836;BME280;3963;42.658;23.298;2023-03-31T00:35:26;59122.59;;;8.26;80.33
7836;BME280;3963;42.658;23.298;2023-03-31T00:37:54;59095.41;;;8.30;80.87
7836;BME280;3963;42.658;23.298;2023-03-31T00:40:22;59120.38;;;8.22;80.81
7836;BME280;3963;42.658;23.298;2023-03-31T00:42:49;59126.59;;;8.23;79.91
7836;BME280;3963;42.658;23.298;2023-03-31T00:45:37;59096.38;;;8.14;81.66
7836;BME280;3963;42.658;23.298;2023-03-31T00:48:06;59071.22;;;8.17;81.87
7836;BME280;3963;42.658;23.298;2023-03-31T00:50:39;59057.47;;;7.92;83.14
7836;BME280;3963;42.658;23.298;2023-03-31T00:53:11;59052.06;;;7.99;84.07
7836;BME280;3963;42.658;23.298;2023-03-31T00:55:44;59040.44;;;7.90;79.72
7836;BME280;3963;42.658;23.298;2023-03-31T00:58:12;59081.78;;;8.10;82.86
7836;BME280;3963;42.658;23.298;2023-03-31T01:00:44;59079.28;;;8.27;82.58
7836;BME280;3963;42.658;23.298;2023-03-31T01:03:13;59106.03;;;8.25;80.43
7836;BME280;3963;42.658;23.298;2023-03-31T01:05:42;59107.91;;;8.34;81.86
7836;BME280;3963;42.658;23.298;2023-03-31T01:08:13;59115.38;;;8.42;79.21
7836;BME280;3963;42.658;23.298;2023-03-31T01:10:44;59083.34;;;8.41;80.31
7836;BME280;3963;42.658;23.298;2023-03-31T01:13:12;59102.19;;;8.49;79.48
7836;BME280;3963;42.658;23.298;2023-03-31T01:15:41;59127.25;;;8.58;78.98
7836;BME280;3963;42.658;23.298;2023-03-31T01:18:08;59154.72;;;8.76;78.12
7836;BME280;3963;42.658;23.298;2023-03-31T01:20:44;59183.53;;;8.89;77.93
7836;BME280;3963;42.658;23.298;2023-03-31T01:23:44;59203.00;;;9.00;74.38
7836;BME280;3963;42.658;23.298;2023-03-31T01:26:55;59232.72;;;9.09;75.60
7836;BME280;3963;42.658;23.298;2023-03-31T01:35:57;59230.94;;;9.17;76.34
7836;BME280;3963;42.658;23.298;2023-03-31T01:38:59;59215.63;;;9.07;78.63
7836;BME280;3963;42.658;23.298;2023-03-31T01:41:38;59188.69;;;9.21;80.38
7836;BME280;3963;42.658;23.298;2023-03-31T01:44:17;59205.13;;;9.02;80.42
7836;BME280;3963;42.658;23.298;2023-03-31T01:46:52;59161.84;;;9.05;79.50
7836;BME280;3963;42.658;23.298;2023-03-31T01:49:24;59190.69;;;9.03;83.69
7836;BME280;3963;42.658;23.298;2023-03-31T01:51:59;59222.56;;;8.99;80.74
7836;BME280;3963;42.658;23.298;2023-03-31T01:54:33;59214.56;;;9.06;80.74
7836;BME280;3963;42.658;23.298;2023-03-31T01:57:10;59208.13;;;9.15;81.59
7836;BME280;3963;42.658;23.298;2023-03-31T01:59:44;59210.44;;;9.22;78.35
7836;BME280;3963;42.658;23.298;2023-03-31T02:02:15;59244.28;;;9.15;79.39
7836;BME280;3963;42.658;23.298;2023-03-31T02:04:47;59234.91;;;9.28;80.58
7836;BME280;3963;42.658;23.298;2023-03-31T02:07:17;59205.88;;;9.25;78.13
7836;BME280;3963;42.658;23.298;2023-03-31T02:09:48;59228.59;;;9.24;79.91
7836;BME280;3963;42.658;23.298;2023-03-31T02:12:20;59163.28;;;9.33;80.20
7836;BME280;3963;42.658;23.298;2023-03-31T02:14:49;59251.72;;;9.36;80.51
7836;BME280;3963;42.658;23.298;2023-03-31T02:17:21;59239.63;;;9.30;78.04
7836;BME280;3963;42.658;23.298;2023-03-31T02:19:56;59216.84;;;9.28;80.64
7836;BME280;3963;42.658;23.298;2023-03-31T02:22:28;59211.16;;;9.13;85.06
7836;BME280;3963;42.658;23.298;2023-03-31T02:24:59;59204.56;;;9.16;84.81
7836;BME280;3963;42.658;23.298;2023-03-31T02:27:31;59166.31;;;9.00;92.29
7836;BME280;3963;42.658;23.298;2023-03-31T02:29:58;59188.69;;;8.89;94.86
7836;BME280;3963;42.658;23.298;2023-03-31T02:32:29;59174.53;;;8.83;96.98
7836;BME280;3963;42.658;23.298;2023-03-31T02:34:58;59155.72;;;8.60;97.52
7836;BME280;3963;42.658;23.298;2023-03-31T02:37:25;59143.31;;;8.75;100.00
7836;BME280;3963;42.658;23.298;2023-03-31T02:39:54;59172.59;;;8.86;98.14
7836;BME280;3963;42.658;23.298;2023-03-31T02:42:22;59206.25;;;9.20;97.41
7836;BME280;3963;42.658;23.298;2023-03-31T02:44:50;59226.16;;;9.29;100.00
7836;BME280;3963;42.658;23.298;2023-03-31T02:47:18;59209.16;;;9.30;100.00
7836;BME280;3963;42.658;23.298;2023-03-31T02:49:48;59195.88;;;9.35;100.00
7836;BME280;3963;42.658;23.298;2023-03-31T02:52:31;59206.38;;;9.40;100.00
7836;BME280;3963;42.658;23.298;2023-03-31T03:01:17;59220.09;;;9.02;100.00
7836;BME280;3963;42.658;23.298;2023-03-31T03:04:04;59227.31;;;9.33;100.00
7836;BME280;3963;42.658;23.298;2023-03-31T03:06:41;59216.38;;;9.30;100.00
7836;BME280;3963;42.658;23.298;2023-03-31T03:09:27;59231.88;;;9.30;100.00
7836;BME280;3963;42.658;23.298;2023-03-31T03:12:07;59196.53;;;9.23;100.00
7836;BME280;3963;42.658;23.298;2023-03-31T03:14:38;59262.59;;;9.37;100.00
7836;BME280;3963;42.658;23.298;2023-03-31T03:17:10;59246.19;;;9.41;100.00
7836;BME280;3963;42.658;23.298;2023-03-31T03:19:40;59259.38;;;9.49;100.00
7836;BME280;3963;42.658;23.298;2023-03-31T03:22:07;59263.66;;;9.53;100.00
7836;BME280;3963;42.658;23.298;2023-03-31T03:24:34;59227.75;;;9.45;100.00
7836;BME280;3963;42.658;23.298;2023-03-31T03:27:01;59248.50;;;9.48;100.00
7836;BME280;3963;42.658;23.298;2023-03-31T03:29:28;59253.13;;;9.48;100.00
7836;BME280;3963;42.658;23.298;2023-03-31T03:31:55;59253.31;;;9.53;100.00
7836;BME280;3963;42.658;23.298;2023-03-31T03:34:24;59224.38;;;9.37;100.00
7836;BME280;3963;42.658;23.298;2023-03-31T03:36:51;59270.59;;;9.44;100.00
7836;BME280;3963;42.658;23.298;2023-03-31T03:39:18;59255.63;;;9.45;100.00
7836;BME280;3963;42.658;23.298;2023-03-31T03:41:45;59246.91;;;9.47;100.00
7836;BME280;3963;42.658;23.298;2023-03-31T03:44:12;59299.06;;;9.62;100.00
7836;BME280;3963;42.658;23.298;2023-03-31T03:46:38;59264.69;;;9.54;100.00
7836;BME280;3963;42.658;23.298;2023-03-31T03:49:05;59278.97;;;9.48;100.00
7836;BME280;3963;42.658;23.298;2023-03-31T03:51:34;59236.59;;;9.32;100.00
7836;BME280;3963;42.658;23.298;2023-03-31T03:54:00;59240.31;;;9.35;100.00
7836;BME280;3963;42.658;23.298;2023-03-31T03:56:27;59256.69;;;9.46;100.00
7836;BME280;3963;42.658;23.298;2023-03-31T03:58:54;59266.03;;;9.48;100.00
7836;BME280;3963;42.658;23.298;2023-03-31T04:01:21;59282.97;;;9.59;100.00
7836;BME280;3963;42.658;23.298;2023-03-31T04:03:48;59279.66;;;9.53;100.00
7836;BME280;3963;42.658;23.298;2023-03-31T04:06:15;59229.59;;;9.55;100.00
7836;BME280;3963;42.658;23.298;2023-03-31T04:08:43;59237.13;;;9.32;100.00
7836;BME280;3963;42.658;23.298;2023-03-31T04:11:12;59273.00;;;9.39;100.00
7836;BME280;3963;42.658;23.298;2023-03-31T04:13:40;59236.84;;;9.39;100.00
7836;BME280;3963;42.658;23.298;2023-03-31T04:16:06;59232.66;;;9.38;100.00
7836;BME280;3963;42.658;23.298;2023-03-31T04:18:33;59238.94;;;9.24;100.00
7836;BME280;3963;42.658;23.298;2023-03-31T04:21:02;59225.41;;;9.21;100.00
7836;BME280;3963;42.658;23.298;2023-03-31T04:23:29;59231.19;;;9.24;100.00
7836;BME280;3963;42.658;23.298;2023-03-31T04:25:58;59245.06;;;9.23;100.00
7836;BME280;3963;42.658;23.298;2023-03-31T04:28:25;59230.94;;;9.17;100.00
7836;BME280;3963;42.658;23.298;2023-03-31T04:30:59;59239.91;;;9.23;100.00
7836;BME280;3963;42.658;23.298;2023-03-31T04:33:25;59195.00;;;9.24;100.00
7836;BME280;3963;42.658;23.298;2023-03-31T04:35:52;59212.94;;;9.19;100.00
7836;BME280;3963;42.658;23.298;2023-03-31T04:38:20;59209.69;;;9.31;100.00
7836;BME280;3963;42.658;23.298;2023-03-31T04:40:48;59212.09;;;9.26;100.00
7836;BME280;3963;42.658;23.298;2023-03-31T04:43:17;59237.31;;;9.37;100.00
7836;BME280;3963;42.658;23.298;2023-03-31T04:45:44;59240.31;;;9.35;100.00
7836;BME280;3963;42.658;23.298;2023-03-31T04:48:12;59212.94;;;9.19;100.00
7836;BME280;3963;42.658;23.298;2023-03-31T04:50:39;59223.94;;;9.39;100.00
7836;BME280;3963;42.658;23.298;2023-03-31T04:53:05;59251.81;;;9.39;100.00
7836;BME280;3963;42.658;23.298;2023-03-31T04:55:33;59215.75;;;9.27;100.00
7836;BME280;3963;42.658;23.298;2023-03-31T04:58:00;59232.84;;;9.43;100.00
7836;BME280;3963;42.658;23.298;2023-03-31T05:00:28;59259.22;;;9.43;100.00
7836;BME280;3963;42.658;23.298;2023-03-31T05:02:55;59205.91;;;9.42;100.00
7836;BME280;3963;42.658;23.298;2023-03-31T05:05:21;59239.78;;;9.50;100.00
7836;BME280;3963;42.658;23.298;2023-03-31T05:07:48;59230.47;;;9.51;100.00
7836;BME280;3963;42.658;23.298;2023-03-31T05:10:17;59256.94;;;9.54;100.00
7836;BME280;3963;42.658;23.298;2023-03-31T05:12:44;59264.34;;;9.58;100.00
7836;BME280;3963;42.658;23.298;2023-03-31T05:15:10;59258.66;;;9.43;100.00
7836;BME280;3963;42.658;23.298;2023-03-31T05:17:39;59240.72;;;9.16;100.00
7836;BME280;3963;42.658;23.298;2023-03-31T05:20:06;59206.31;;;9.23;100.00
7836;BME280;3963;42.658;23.298;2023-03-31T05:22:35;59226.16;;;9.29;100.00
7836;BME280;3963;42.658;23.298;2023-03-31T05:25:03;59248.78;;;9.41;100.00
7836;BME280;3963;42.658;23.298;2023-03-31T05:27:31;59275.56;;;9.54;100.00
7836;BME280;3963;42.658;23.298;2023-03-31T05:29:58;59264.19;;;9.38;100.00
7836;BME280;3963;42.658;23.298;2023-03-31T05:32:25;59290.19;;;9.58;100.00
7836;BME280;3963;42.658;23.298;2023-03-31T05:34:54;59277.22;;;9.73;100.00
7836;BME280;3963;42.658;23.298;2023-03-31T05:37:22;59305.13;;;9.72;100.00
7836;BME280;3963;42.658;23.298;2023-03-31T05:39:50;59254.25;;;9.66;100.00
7836;BME280;3963;42.658;23.298;2023-03-31T05:42:17;59241.91;;;9.52;100.00
7836;BME280;3963;42.658;23.298;2023-03-31T05:44:45;59255.41;;;9.69;100.00
7836;BME280;3963;42.658;23.298;2023-03-31T05:47:12;59281.16;;;9.67;100.00
7836;BME280;3963;42.658;23.298;2023-03-31T05:49:39;59289.50;;;9.84;100.00
7836;BME280;3963;42.658;23.298;2023-03-31T05:52:10;59297.88;;;9.87;100.00
7836;BME280;3963;42.658;23.298;2023-03-31T05:54:37;59330.56;;;10.06;100.00
7836;BME280;3963;42.658;23.298;2023-03-31T05:57:03;59369.44;;;10.23;100.00
7836;BME280;3963;42.658;23.298;2023-03-31T05:59:30;59372.41;;;10.50;100.00
7836;BME280;3963;42.658;23.298;2023-03-31T06:01:59;59376.09;;;10.37;100.00
7836;BME280;3963;42.658;23.298;2023-03-31T06:04:26;59391.97;;;10.47;100.00
7836;BME280;3963;42.658;23.298;2023-03-31T06:06:52;59381.97;;;10.42;100.00
7836;BME280;3963;42.658;23.298;2023-03-31T06:09:21;59388.56;;;10.53;100.00
7836;BME280;3963;42.658;23.298;2023-03-31T06:11:48;59379.56;;;10.47;100.00
7836;BME280;3963;42.658;23.298;2023-03-31T06:14:15;59394.00;;;10.46;100.00
7836;BME280;3963;42.658;23.298;2023-03-31T06:16:41;59383.31;;;10.36;100.00
7836;BME280;3963;42.658;23.298;2023-03-31T06:19:08;59389.66;;;10.40;100.00
7836;BME280;3963;42.658;23.298;2023-03-31T06:21:35;59384.84;;;10.35;100.00
7836;BME280;3963;42.658;23.298;2023-03-31T06:24:02;59373.63;;;10.57;100.00
7836;BME280;3963;42.658;23.298;2023-03-31T06:26:30;59368.47;;;10.57;100.00
7836;BME280;3963;42.658;23.298;2023-03-31T06:28:56;59412.19;;;10.64;100.00
7836;BME280;3963;42.658;23.298;2023-03-31T06:31:24;59415.91;;;10.67;100.00
7836;BME280;3963;42.658;23.298;2023-03-31T06:33:51;59419.03;;;10.68;100.00
7836;BME280;3963;42.658;23.298;2023-03-31T06:36:19;59415.94;;;10.52;100.00
7836;BME280;3963;42.658;23.298;2023-03-31T06:38:46;59390.22;;;10.57;100.00
7836;BME280;3963;42.658;23.298;2023-03-31T06:41:15;59429.13;;;10.75;100.00
7836;BME280;3963;42.658;23.298;2023-03-31T06:43:44;59448.91;;;10.93;100.00
7836;BME280;3963;42.658;23.298;2023-03-31T06:46:11;59467.09;;;11.10;100.00
7836;BME280;3963;42.658;23.298;2023-03-31T06:48:38;59473.09;;;11.36;100.00
7836;BME280;3963;42.658;23.298;2023-03-31T06:51:06;59529.72;;;11.55;89.18
7836;BME280;3963;42.658;23.298;2023-03-31T06:53:34;59531.91;;;11.74;92.04
7836;BME280;3963;42.658;23.298;2023-03-31T06:56:01;59577.75;;;11.95;92.06
7836;BME280;3963;42.658;23.298;2023-03-31T06:58:28;59593.41;;;11.98;94.38
7836;BME280;3963;42.658;23.298;2023-03-31T07:00:56;59572.75;;;12.00;92.79
7836;BME280;3963;42.658;23.298;2023-03-31T07:03:22;59602.69;;;12.11;93.35
7836;BME280;3963;42.658;23.298;2023-03-31T07:05:50;59640.19;;;12.15;89.04
7836;BME280;3963;42.658;23.298;2023-03-31T07:08:18;59641.78;;;12.16;76.01
7836;BME280;3963;42.658;23.298;2023-03-31T07:10:46;59643.91;;;12.33;77.09
7836;BME280;3963;42.658;23.298;2023-03-31T07:13:13;59649.34;;;12.41;75.54
7836;BME280;3963;42.658;23.298;2023-03-31T07:15:40;59641.00;;;12.40;73.49
7836;BME280;3963;42.658;23.298;2023-03-31T07:18:09;59654.22;;;12.62;76.96
7836;BME280;3963;42.658;23.298;2023-03-31T07:20:37;59667.13;;;12.60;74.24
7836;BME280;3963;42.658;23.298;2023-03-31T07:23:04;59699.06;;;13.00;74.38
7836;BME280;3963;42.658;23.298;2023-03-31T07:25:31;59752.75;;;13.18;70.50
7836;BME280;3963;42.658;23.298;2023-03-31T07:27:58;59761.25;;;13.24;68.95
7836;BME280;3963;42.658;23.298;2023-03-31T07:30:25;59750.69;;;13.19;69.23
7836;BME280;3963;42.658;23.298;2023-03-31T07:32:52;59776.88;;;13.41;68.65
7836;BME280;3963;42.658;23.298;2023-03-31T07:35:20;59778.13;;;13.47;66.54
7836;BME280;3963;42.658;23.298;2023-03-31T07:37:49;59826.38;;;13.58;67.23
7836;BME280;3963;42.658;23.298;2023-03-31T07:40:18;59829.84;;;13.69;67.08
7836;BME280;3963;42.658;23.298;2023-03-31T07:42:46;59848.09;;;13.86;65.81
7836;BME280;3963;42.658;23.298;2023-03-31T07:45:14;59872.41;;;13.97;64.59
7836;BME280;3963;42.658;23.298;2023-03-31T07:47:41;59894.03;;;14.05;64.59
7836;BME280;3963;42.658;23.298;2023-03-31T07:50:09;59903.16;;;14.13;64.56
7836;BME280;3963;42.658;23.298;2023-03-31T07:52:37;59856.13;;;14.08;64.27
7836;BME280;3963;42.658;23.298;2023-03-31T07:55:04;59870.84;;;14.12;62.99
7836;BME280;3963;42.658;23.298;2023-03-31T07:57:32;59869.69;;;14.09;63.45
7836;BME280;3963;42.658;23.298;2023-03-31T07:59:58;59883.13;;;14.21;61.97
7836;BME280;3963;42.658;23.298;2023-03-31T08:02:26;59893.25;;;14.28;61.28
7836;BME280;3963;42.658;23.298;2023-03-31T08:04:53;59897.66;;;14.20;60.13
7836;BME280;3963;42.658;23.298;2023-03-31T08:07:20;59900.97;;;14.26;59.78
7836;BME280;3963;42.658;23.298;2023-03-31T08:09:48;59910.44;;;14.59;58.63
7836;BME280;3963;42.658;23.298;2023-03-31T08:12:15;59992.84;;;14.92;57.89
7836;BME280;3963;42.658;23.298;2023-03-31T08:14:42;59991.78;;;14.91;57.33
7836;BME280;3963;42.658;23.298;2023-03-31T08:17:09;59990.88;;;14.95;55.39
7836;BME280;3963;42.658;23.298;2023-03-31T08:19:36;59987.47;;;14.87;53.29
7836;BME280;3963;42.658;23.298;2023-03-31T08:22:03;59993.34;;;15.08;52.97
7836;BME280;3963;42.658;23.298;2023-03-31T08:24:30;60073.22;;;15.56;52.46
7836;BME280;3963;42.658;23.298;2023-03-31T08:26:58;60112.75;;;15.83;52.52
7836;BME280;3963;42.658;23.298;2023-03-31T08:29:25;60212.59;;;16.47;48.71
7836;BME280;3963;42.658;23.298;2023-03-31T08:31:52;60235.78;;;16.83;48.38
7836;BME280;3963;42.658;23.298;2023-03-31T08:34:19;60320.88;;;17.73;46.78
7836;BME280;3963;42.658;23.298;2023-03-31T08:36:46;60451.84;;;18.19;44.96
7836;BME280;3963;42.658;23.298;2023-03-31T08:39:13;60496.34;;;18.48;44.03
7836;BME280;3963;42.658;23.298;2023-03-31T08:41:47;60310.22;;;17.36;45.28
7836;BME280;3963;42.658;23.298;2023-03-31T08:44:22;60360.22;;;17.58;44.48
7836;BME280;3963;42.658;23.298;2023-03-31T08:46:53;60264.34;;;16.93;45.55
7836;BME280;3963;42.658;23.298;2023-03-31T08:49:22;60309.78;;;17.38;45.50
7836;BME280;3963;42.658;23.298;2023-03-31T08:51:54;60292.41;;;17.19;44.35
7836;BME280;3963;42.658;23.298;2023-03-31T08:54:30;60469.66;;;18.18;43.51
7836;BME280;3963;42.658;23.298;2023-03-31T08:56:59;60634.78;;;19.53;41.02
7836;BME280;3963;42.658;23.298;2023-03-31T08:59:29;60762.13;;;20.34;39.14
7836;BME280;3963;42.658;23.298;2023-03-31T09:02:02;60797.03;;;20.72;38.11
7836;BME280;3963;42.658;23.298;2023-03-31T09:04:52;60800.66;;;20.70;37.71
7836;BME280;3963;42.658;23.298;2023-03-31T09:07:27;60704.47;;;20.10;38.34
7836;BME280;3963;42.658;23.298;2023-03-31T09:10:05;60741.63;;;20.35;38.04
7836;BME280;3963;42.658;23.298;2023-03-31T09:12:45;60780.03;;;20.51;37.87
7836;BME280;3963;42.658;23.298;2023-03-31T09:15:25;60860.34;;;20.91;37.53
7836;BME280;3963;42.658;23.298;2023-03-31T09:17:53;60813.28;;;20.70;37.90
7836;BME280;3963;42.658;23.298;2023-03-31T09:20:28;60822.66;;;20.98;37.60
7836;BME280;3963;42.658;23.298;2023-03-31T09:23:00;60754.53;;;20.27;37.80
7836;BME280;3963;42.658;23.298;2023-03-31T09:25:34;60591.84;;;19.10;38.26
7836;BME280;3963;42.658;23.298;2023-03-31T09:28:08;60529.06;;;18.69;39.84
7836;BME280;3963;42.658;23.298;2023-03-31T09:30:41;60707.56;;;20.08;37.78
7836;BME280;3963;42.658;23.298;2023-03-31T09:33:11;60734.06;;;19.99;37.43
7836;BME280;3963;42.658;23.298;2023-03-31T09:35:40;60689.22;;;19.62;37.84
7836;BME280;3963;42.658;23.298;2023-03-31T09:38:08;60613.75;;;19.06;39.22
7836;BME280;3963;42.658;23.298;2023-03-31T09:40:35;60449.59;;;18.14;40.58
7836;BME280;3963;42.658;23.298;2023-03-31T09:43:04;60505.31;;;18.35;40.64
7836;BME280;3963;42.658;23.298;2023-03-31T09:45:31;60400.25;;;17.81;42.76
7836;BME280;3963;42.658;23.298;2023-03-31T09:48:03;60413.19;;;17.76;42.47
7836;BME280;3963;42.658;23.298;2023-03-31T09:50:37;60401.91;;;17.67;42.69
7836;BME280;3963;42.658;23.298;2023-03-31T09:53:13;60515.06;;;18.44;42.15
7836;BME280;3963;42.658;23.298;2023-03-31T09:55:44;60538.75;;;18.61;41.13
7836;BME280;3963;42.658;23.298;2023-03-31T09:58:13;60715.81;;;19.72;40.25
7836;BME280;3963;42.658;23.298;2023-03-31T10:00:42;60678.28;;;19.81;38.77
7836;BME280;3963;42.658;23.298;2023-03-31T10:03:23;60715.63;;;19.81;38.77
7836;BME280;3963;42.658;23.298;2023-03-31T10:05:54;60638.06;;;19.41;39.07
7836;BME280;3963;42.658;23.298;2023-03-31T10:08:26;60434.13;;;17.90;42.43
7836;BME280;3963;42.658;23.298;2023-03-31T10:10:56;60376.16;;;17.19;44.25
7836;BME280;3963;42.658;23.298;2023-03-31T10:13:25;60357.84;;;17.19;44.28
7836;BME280;3963;42.658;23.298;2023-03-31T10:15:54;60339.41;;;17.31;44.49
7836;BME280;3963;42.658;23.298;2023-03-31T10:18:33;60241.66;;;16.72;45.52
7836;BME280;3963;42.658;23.298;2023-03-31T10:21:02;60259.16;;;16.64;46.18
7836;BME280;3963;42.658;23.298;2023-03-31T10:23:31;60235.22;;;16.51;46.36
7836;BME280;3963;42.658;23.298;2023-03-31T10:25:58;60294.03;;;16.89;45.83
7836;BME280;3963;42.658;23.298;2023-03-31T10:28:26;60288.16;;;16.86;46.07
7836;BME280;3963;42.658;23.298;2023-03-31T10:30:57;60308.94;;;16.81;46.05
7836;BME280;3963;42.658;23.298;2023-03-31T10:33:29;60238.09;;;16.58;46.19
7836;BME280;3963;42.658;23.298;2023-03-31T10:36:06;60224.41;;;16.41;46.11
7836;BME280;3963;42.658;23.298;2023-03-31T10:38:35;60224.13;;;16.48;46.72
7836;BME280;3963;42.658;23.298;2023-03-31T10:41:04;60244.34;;;16.42;46.65
7836;BME280;3963;42.658;23.298;2023-03-31T10:43:37;60259.72;;;16.64;46.34
7836;BME280;3963;42.658;23.298;2023-03-31T10:46:05;60301.91;;;16.74;46.02
7836;BME280;3963;42.658;23.298;2023-03-31T10:48:34;60311.47;;;16.64;46.16
7836;BME280;3963;42.658;23.298;2023-03-31T10:51:10;60259.56;;;16.59;46.11
7836;BME280;3963;42.658;23.298;2023-03-31T10:53:39;60263.97;;;16.66;45.90
7836;BME280;3963;42.658;23.298;2023-03-31T10:56:24;60257.72;;;16.67;45.77
7836;BME280;3963;42.658;23.298;2023-03-31T10:59:06;60306.34;;;16.66;45.57
7836;BME280;3963;42.658;23.298;2023-03-31T11:01:45;60230.63;;;16.54;46.18
7836;BME280;3963;42.658;23.298;2023-03-31T11:04:41;60260.25;;;16.65;46.40
7836;BME280;3963;42.658;23.298;2023-03-31T11:07:19;60229.00;;;16.38;46.84
7836;BME280;3963;42.658;23.298;2023-03-31T11:09:55;60194.38;;;16.18;46.72
7836;BME280;3963;42.658;23.298;2023-03-31T11:12:28;60195.81;;;16.14;47.33
7836;BME280;3963;42.658;23.298;2023-03-31T11:15:05;60244.25;;;16.54;46.67
7836;BME280;3963;42.658;23.298;2023-03-31T11:17:58;60258.38;;;16.55;46.15
7836;BME280;3963;42.658;23.298;2023-03-31T11:20:33;60214.41;;;16.39;46.71
7836;BME280;3963;42.658;23.298;2023-03-31T11:23:13;60237.38;;;16.53;46.73
7836;BME280;3963;42.658;23.298;2023-03-31T11:25:46;60247.53;;;16.75;46.70
7836;BME280;3963;42.658;23.298;2023-03-31T11:28:31;60253.50;;;16.66;47.43
7836;BME280;3963;42.658;23.298;2023-03-31T11:31:09;60224.50;;;16.43;46.86
7836;BME280;3963;42.658;23.298;2023-03-31T11:33:52;60237.03;;;16.43;46.71
7836;BME280;3963;42.658;23.298;2023-03-31T11:39:33;60255.19;;;16.70;45.78
7836;BME280;3963;42.658;23.298;2023-03-31T11:42:07;60262.56;;;16.86;46.93
7836;BME280;3963;42.658;23.298;2023-03-31T11:44:40;60359.03;;;17.23;45.44
7836;BME280;3963;42.658;23.298;2023-03-31T11:47:10;60326.88;;;17.32;45.63
7836;BME280;3963;42.658;23.298;2023-03-31T11:49:52;60311.22;;;17.02;46.61
7836;BME280;3963;42.658;23.298;2023-03-31T11:52:24;60326.09;;;17.09;46.71
7836;BME280;3963;42.658;23.298;2023-03-31T11:54:57;60285.81;;;16.93;46.91
7836;BME280;3963;42.658;23.298;2023-03-31T11:57:29;60330.19;;;17.37;46.01
7836;BME280;3963;42.658;23.298;2023-03-31T12:00:00;60316.44;;;17.17;46.26
7836;BME280;3963;42.658;23.298;2023-03-31T12:02:37;60301.13;;;16.98;46.81
7836;BME280;3963;42.658;23.298;2023-03-31T12:05:09;60278.28;;;17.03;47.02
7836;BME280;3963;42.658;23.298;2023-03-31T12:07:42;60369.81;;;17.33;46.42
7836;BME280;3963;42.658;23.298;2023-03-31T12:10:18;60378.81;;;17.51;46.18
7836;BME280;3963;42.658;23.298;2023-03-31T12:12:48;60426.66;;;17.71;45.38
7836;BME280;3963;42.658;23.298;2023-03-31T12:15:20;60385.13;;;17.52;45.73
7836;BME280;3963;42.658;23.298;2023-03-31T12:17:54;60360.78;;;17.44;45.82
7836;BME280;3963;42.658;23.298;2023-03-31T12:20:28;60304.84;;;17.31;45.95
7836;BME280;3963;42.658;23.298;2023-03-31T12:22:57;60349.38;;;17.16;46.46
7836;BME280;3963;42.658;23.298;2023-03-31T12:25:37;60307.22;;;17.23;46.52
7836;BME280;3963;42.658;23.298;2023-03-31T12:28:09;60297.69;;;17.04;46.61
7836;BME280;3963;42.658;23.298;2023-03-31T12:30:38;60295.00;;;17.02;46.72
7836;BME280;3963;42.658;23.298;2023-03-31T12:33:14;60318.03;;;17.19;46.90
7836;BME280;3963;42.658;23.298;2023-03-31T12:35:51;60315.81;;;17.46;46.38
7836;BME280;3963;42.658;23.298;2023-03-31T12:38:29;60367.59;;;17.60;45.95
7836;BME280;3963;42.658;23.298;2023-03-31T12:41:09;60386.56;;;17.63;45.96
7836;BME280;3963;42.658;23.298;2023-03-31T12:47:01;60486.72;;;18.27;43.91
7836;BME280;3963;42.658;23.298;2023-03-31T12:49:49;60519.69;;;18.55;42.97
7836;BME280;3963;42.658;23.298;2023-03-31T12:52:24;60439.19;;;18.17;43.86
7836;BME280;3963;42.658;23.298;2023-03-31T12:55:23;60432.69;;;18.11;43.94
7836;BME280;3963;42.658;23.298;2023-03-31T12:58:38;60500.66;;;18.20;44.15
7836;BME280;3963;42.658;23.298;2023-03-31T13:01:07;60479.09;;;18.35;43.74
7836;BME280;3963;42.658;23.298;2023-03-31T13:03:40;60485.19;;;18.28;44.16
7836;BME280;3963;42.658;23.298;2023-03-31T13:06:09;60508.03;;;18.37;44.09
7836;BME280;3963;42.658;23.298;2023-03-31T13:08:50;60486.34;;;18.32;43.26
7836;BME280;3963;42.658;23.298;2023-03-31T13:11:18;60475.06;;;18.23;43.53
7836;BME280;3963;42.658;23.298;2023-03-31T13:13:56;60502.16;;;18.34;43.74
7836;BME280;3963;42.658;23.298;2023-03-31T13:16:24;60497.38;;;18.32;44.43
7836;BME280;3963;42.658;23.298;2023-03-31T13:18:52;60494.47;;;18.39;43.85
7836;BME280;3963;42.658;23.298;2023-03-31T13:21:20;60523.31;;;18.54;43.71
7836;BME280;3963;42.658;23.298;2023-03-31T13:23:47;60472.53;;;18.26;43.42
7836;BME280;3963;42.658;23.298;2023-03-31T13:26:35;60466.31;;;18.13;43.88
7836;BME280;3963;42.658;23.298;2023-03-31T13:29:18;60445.56;;;18.03;44.33
7836;BME280;3963;42.658;23.298;2023-03-31T13:32:04;60414.28;;;18.08;44.32
7836;BME280;3963;42.658;23.298;2023-03-31T13:34:34;60471.16;;;18.00;44.48
7836;BME280;3963;42.658;23.298;2023-03-31T13:37:16;60447.19;;;18.05;44.45
7836;BME280;3963;42.658;23.298;2023-03-31T13:39:58;60439.63;;;17.98;44.69
7836;BME280;3963;42.658;23.298;2023-03-31T13:43:06;60414.91;;;17.80;45.00
7836;BME280;3963;42.658;23.298;2023-03-31T13:46:05;60401.00;;;17.72;45.16
7836;BME280;3963;42.658;23.298;2023-03-31T13:48:50;60386.88;;;17.56;45.15
7836;BME280;3963;42.658;23.298;2023-03-31T13:51:33;60390.09;;;17.44;45.37
7836;BME280;3963;42.658;23.298;2023-03-31T13:54:18;60388.22;;;17.50;45.53